Time;durP1;ratioP1;P1;durP2;ratioP2;P2;SDS_P1;SDS_P2;PMS_P1;PMS_P2;Temp;Humidity;BMP_temperature;BMP_pressure;BME280_temperature;BME280_humidity;BME280_pressure;Samples;Min_cycle;Max_cycle;Signal;HPM_P1;HPM_P2
2024/03/29 01:44:27;;;;;;;2.23;1.97;;;;;;;9.80;74.26;98807.63;5034590;28;20210;-63
2024/03/29 01:46:55;;;;;;;3.50;2.33;;;;;;;9.77;74.27;98803.41;5045976;28;20212;-64
2024/03/29 01:49:22;;;;;;;5.63;2.20;;;;;;;9.80;74.28;98805.06;5041565;28;20925;-65
2024/03/29 01:52:07;;;;;;;2.77;1.97;;;;;;;9.82;73.68;98814.41;5048728;28;20228;-63
2024/03/29 01:54:34;;;;;;;2.73;1.93;;;;;;;9.82;72.40;98816.13;5049575;28;20233;-64
2024/03/29 01:57:01;;;;;;;4.13;1.97;;;;;;;9.81;72.14;98835.88;5056004;28;20198;-65
2024/03/29 01:59:29;;;;;;;2.33;2.03;;;;;;;9.77;70.32;98818.00;5045126;28;20210;-65
2024/03/29 02:01:59;;;;;;;2.70;1.60;;;;;;;9.76;70.43;98817.16;5064022;28;20201;-64
2024/03/29 02:04:27;;;;;;;2.73;1.90;;;;;;;9.77;70.72;98826.56;5054756;28;20211;-66
2024/03/29 02:06:56;;;;;;;4.30;2.00;;;;;;;9.78;70.72;98827.41;5055533;28;20259;-65
2024/03/29 02:09:23;;;;;;;3.30;2.03;;;;;;;9.83;70.89;98839.25;5062552;28;20202;-64
2024/03/29 02:11:51;;;;;;;2.20;2.00;;;;;;;9.84;70.14;98840.09;5051072;28;20590;-65
2024/03/29 02:14:18;;;;;;;2.90;1.97;;;;;;;9.86;70.24;98843.47;5051985;28;20230;-65
2024/03/29 02:16:45;;;;;;;1.60;1.50;;;;;;;9.88;70.27;98849.41;5060713;28;20216;-67
2024/03/29 02:19:13;;;;;;;2.80;1.80;;;;;;;9.90;69.86;98852.78;5069282;28;20241;-64
2024/03/29 02:21:48;;;;;;;3.27;1.67;;;;;;;9.90;69.56;98851.06;5061327;28;20579;-65
2024/03/29 02:24:17;;;;;;;2.97;1.90;;;;;;;9.89;69.28;98858.81;5052161;28;20209;-66
2024/03/29 02:26:45;;;;;;;2.53;1.70;;;;;;;9.87;69.36;98864.00;5059237;28;20202;-65
2024/03/29 02:29:12;;;;;;;1.87;1.70;;;;;;;9.86;68.99;98864.88;5045368;28;20210;-65
2024/03/29 02:31:39;;;;;;;2.70;1.80;;;;;;;9.86;68.54;98866.63;5056350;28;20213;-61
2024/03/29 02:34:07;;;;;;;1.60;1.50;;;;;;;9.87;68.34;98870.91;5065903;28;20235;-62
2024/03/29 02:36:34;;;;;;;3.10;1.80;;;;;;;9.86;68.20;98874.31;5058830;28;20213;-62
2024/03/29 02:39:01;;;;;;;3.70;1.80;;;;;;;9.87;68.58;98886.34;5053769;28;20206;-63
2024/03/29 02:41:30;;;;;;;2.93;1.50;;;;;;;9.87;68.26;98900.03;5056202;28;20212;-61
2024/03/29 02:43:57;;;;;;;2.20;1.70;;;;;;;9.86;68.54;98900.91;5063535;28;20201;-60
2024/03/29 02:46:25;;;;;;;2.33;1.70;;;;;;;9.84;68.13;98901.84;5050745;28;20217;-63
2024/03/29 02:48:51;;;;;;;2.30;1.70;;;;;;;9.83;68.03;98910.41;5036069;28;20206;-63
2024/03/29 02:51:18;;;;;;;2.43;1.70;;;;;;;9.82;67.24;98913.88;5061050;28;20216;-61
2024/03/29 02:53:44;;;;;;;3.43;1.80;;;;;;;9.81;67.85;98925.06;5063217;28;20692;-61
2024/03/29 02:56:30;;;;;;;2.57;1.80;;;;;;;9.82;67.06;98927.59;5053594;28;20236;-61
2024/03/29 02:58:58;;;;;;;3.33;2.10;;;;;;;9.80;67.39;98931.13;5054921;28;20271;-61
2024/03/29 03:01:25;;;;;;;3.83;1.90;;;;;;;9.82;67.08;98940.44;5063130;28;20209;-62
2024/03/29 03:03:51;;;;;;;3.57;1.60;;;;;;;9.80;66.89;98942.25;5058521;28;20669;-61
2024/03/29 03:06:18;;;;;;;2.70;1.70;;;;;;;9.81;66.43;98950.81;5051662;28;20221;-62
2024/03/29 03:11:32;;;;;;;3.97;1.80;;;;;;;9.75;66.28;98949.22;5017879;28;20206;-59
2024/03/29 03:14:00;;;;;;;1.60;1.50;;;;;;;9.73;66.11;98952.72;5052758;28;20233;-60
2024/03/29 03:16:29;;;;;;;3.50;1.80;;;;;;;9.74;66.74;98972.41;5048265;28;20210;-61
2024/03/29 03:18:55;;;;;;;2.37;1.60;;;;;;;9.70;66.07;98981.09;5055361;28;20237;-61
2024/03/29 03:21:23;;;;;;;2.40;1.70;;;;;;;9.68;66.48;98979.41;5054681;28;20259;-60
2024/03/29 03:23:49;;;;;;;3.20;1.70;;;;;;;9.60;66.09;98976.16;5065395;28;20747;-65
2024/03/29 03:26:15;;;;;;;3.37;2.10;;;;;;;9.65;66.26;98984.63;5059961;28;20292;-62
2024/03/29 03:28:41;;;;;;;2.57;1.90;;;;;;;9.62;66.53;98989.00;5052952;28;20202;-61
2024/03/29 03:31:12;;;;;;;2.40;1.80;;;;;;;9.65;65.80;98991.50;5061953;28;20216;-63
2024/03/29 03:33:38;;;;;;;3.63;1.93;;;;;;;9.61;65.93;98993.31;5048060;28;20283;-63
2024/03/29 03:36:06;;;;;;;2.80;1.90;;;;;;;9.60;65.79;99001.88;5043962;28;20245;-61
2024/03/29 03:38:32;;;;;;;1.90;1.67;;;;;;;9.57;65.79;99012.28;5052222;28;20206;-61
2024/03/29 03:41:00;;;;;;;4.13;1.60;;;;;;;9.54;66.41;99002.06;5057293;28;20209;-62
2024/03/29 03:43:26;;;;;;;2.80;1.30;;;;;;;9.53;65.99;99017.50;5052339;28;20205;-62
2024/03/29 03:45:53;;;;;;;2.27;1.57;;;;;;;9.51;66.35;99027.84;5059686;28;20284;-61
2024/03/29 03:48:20;;;;;;;2.57;1.73;;;;;;;9.44;66.39;99031.44;5068827;28;20590;-61
2024/03/29 03:50:47;;;;;;;2.97;2.03;;;;;;;9.42;66.84;99048.59;5047369;28;20287;-63
2024/03/29 03:53:13;;;;;;;2.90;1.90;;;;;;;9.36;66.65;99048.75;5051445;28;20202;-62
2024/03/29 03:55:40;;;;;;;2.47;1.73;;;;;;;9.35;66.42;99041.91;5062232;28;20224;-61
2024/03/29 03:58:09;;;;;;;2.37;1.87;;;;;;;9.33;66.30;99049.66;5055784;28;20205;-62
2024/03/29 04:00:36;;;;;;;2.77;2.20;;;;;;;9.31;66.82;99058.28;5063393;28;20202;-63
2024/03/29 04:03:03;;;;;;;2.83;2.00;;;;;;;9.28;67.36;99056.66;5050747;28;20206;-60
2024/03/29 04:05:32;;;;;;;2.37;1.80;;;;;;;9.27;66.81;99066.94;5052822;28;20209;-66
2024/03/29 04:08:18;;;;;;;2.40;2.10;;;;;;;9.25;66.74;99064.44;5046169;28;20214;-61
2024/03/29 04:13:31;;;;;;;2.67;2.00;;;;;;;9.18;66.78;99066.28;5053800;28;20237;-59
2024/03/29 04:18:47;;;;;;;2.63;1.60;;;;;;;9.13;66.92;99065.53;5054363;28;20689;-62
2024/03/29 04:21:14;;;;;;;3.23;1.90;;;;;;;9.11;66.56;99069.84;5049697;28;20220;-61
2024/03/29 04:23:41;;;;;;;2.03;1.77;;;;;;;9.11;66.75;99077.56;5046310;28;20213;-60
2024/03/29 04:26:07;;;;;;;3.30;1.60;;;;;;;9.08;66.35;99080.19;5055808;28;20210;-62
2024/03/29 04:28:34;;;;;;;1.90;1.70;;;;;;;9.09;66.39;99094.72;5048835;28;20709;-61
2024/03/29 04:31:01;;;;;;;2.53;1.60;;;;;;;9.07;66.28;99099.06;5048569;28;20210;-62
2024/03/29 04:33:28;;;;;;;2.83;1.70;;;;;;;9.05;66.22;99094.81;5045846;28;20264;-61
2024/03/29 04:35:56;;;;;;;4.73;1.87;;;;;;;9.03;66.76;99112.84;5037493;28;20696;-61
2024/03/29 04:38:25;;;;;;;3.37;1.77;;;;;;;9.01;66.79;99119.75;5063568;28;20737;-63
2024/03/29 04:40:53;;;;;;;2.37;1.70;;;;;;;8.98;65.96;99108.69;5071612;28;20202;-61
2024/03/29 04:43:23;;;;;;;2.60;1.80;;;;;;;8.98;66.31;99114.66;5048082;28;20709;-60
2024/03/29 04:48:34;;;;;;;5.63;2.20;;;;;;;8.87;67.00;99117.47;5045300;28;20567;-60
2024/03/29 04:51:03;;;;;;;2.30;1.80;;;;;;;8.85;67.01;99123.50;5049867;28;20210;-60
2024/03/29 04:53:50;;;;;;;2.27;1.70;;;;;;;8.87;66.78;99132.88;5034273;28;20263;-62
2024/03/29 04:56:18;;;;;;;2.63;1.83;;;;;;;8.86;67.31;99140.59;5048468;28;20572;-64
2024/03/29 04:59:03;;;;;;;3.13;1.90;;;;;;;8.81;67.47;99150.13;5049977;28;20209;-61
2024/03/29 05:01:30;;;;;;;2.73;1.93;;;;;;;8.73;67.99;99159.66;5046027;28;20218;-62
2024/03/29 05:03:57;;;;;;;2.63;1.80;;;;;;;8.67;67.87;99150.38;5042808;28;20213;-64
2024/03/29 05:06:24;;;;;;;2.97;2.00;;;;;;;8.66;67.68;99157.22;5046595;28;20209;-61
2024/03/29 05:08:54;;;;;;;2.70;1.90;;;;;;;8.68;68.01;99157.19;5051583;28;20198;-64
2024/03/29 05:11:21;;;;;;;2.43;1.87;;;;;;;8.68;67.57;99152.91;5051074;28;20236;-62
2024/03/29 05:13:48;;;;;;;2.60;2.00;;;;;;;8.76;66.73;99162.19;5052954;28;20205;-61
2024/03/29 05:16:15;;;;;;;3.03;2.30;;;;;;;8.77;66.54;99169.03;5055465;28;20616;-62
2024/03/29 05:19:01;;;;;;;2.07;1.87;;;;;;;8.76;67.21;99157.88;5049583;28;20201;-62
2024/03/29 05:21:28;;;;;;;3.33;2.20;;;;;;;8.79;66.64;99167.28;5040317;28;20210;-61
2024/03/29 05:23:56;;;;;;;2.73;1.90;;;;;;;8.80;67.13;99174.09;5050144;28;20210;-62
2024/03/29 05:26:23;;;;;;;2.83;2.00;;;;;;;8.79;66.42;99169.84;5049532;28;20197;-62
2024/03/29 05:28:50;;;;;;;3.87;1.93;;;;;;;8.77;66.55;99171.59;5050759;28;20210;-62
2024/03/29 05:34:02;;;;;;;4.40;2.10;;;;;;;8.76;66.61;99169.88;5051776;28;20205;-61
2024/03/29 05:36:29;;;;;;;2.70;2.23;;;;;;;8.77;66.11;99166.47;5051882;28;20661;-64
2024/03/29 05:38:57;;;;;;;2.73;2.00;;;;;;;8.78;66.33;99161.28;5052743;28;20206;-64
2024/03/29 05:41:24;;;;;;;3.30;2.20;;;;;;;8.85;65.78;99180.00;5052308;28;20213;-63
2024/03/29 05:44:10;;;;;;;2.30;1.80;;;;;;;8.84;66.08;99178.31;5051605;28;20607;-64
2024/03/29 05:46:37;;;;;;;2.30;1.70;;;;;;;8.91;65.93;99179.88;5058448;28;20692;-63
2024/03/29 05:49:04;;;;;;;2.37;1.80;;;;;;;8.93;65.56;99183.28;5044944;28;20559;-63
2024/03/29 05:51:31;;;;;;;3.57;2.00;;;;;;;8.93;65.00;99183.28;5055104;28;20213;-67
2024/03/29 05:53:59;;;;;;;2.17;1.60;;;;;;;8.95;66.00;99171.25;5060327;28;20542;-64
2024/03/29 05:56:26;;;;;;;4.03;1.90;;;;;;;8.98;64.84;99173.75;5054108;28;20218;-64
2024/03/29 05:58:54;;;;;;;2.33;1.80;;;;;;;8.99;65.31;99178.03;5059227;28;20214;-66
2024/03/29 06:01:21;;;;;;;3.23;1.80;;;;;;;9.03;65.52;99173.69;5056424;28;21021;-63
2024/03/29 06:03:48;;;;;;;2.30;1.67;;;;;;;9.06;64.80;99166.75;5045790;28;20210;-65
2024/03/29 06:06:17;;;;;;;1.87;1.60;;;;;;;9.09;64.66;99179.53;5041167;28;20624;-64
2024/03/29 06:08:44;;;;;;;2.43;1.90;;;;;;;9.15;64.64;99173.44;5056375;28;20587;-66
2024/03/29 06:11:13;;;;;;;3.13;2.27;;;;;;;9.21;64.12;99172.47;5053182;28;20586;-66
2024/03/29 06:19:11;;;;;;;2.83;2.10;;;;;;;9.35;63.52;99191.00;5050742;28;20291;-64
2024/03/29 06:21:39;;;;;;;4.00;2.00;;;;;;;9.39;63.35;99196.09;5049665;28;20209;-65
2024/03/29 06:24:25;;;;;;;3.13;2.20;;;;;;;9.33;62.84;99192.78;5053816;28;20221;-64
2024/03/29 06:26:54;;;;;;;2.27;1.90;;;;;;;9.38;63.11;99212.38;5051074;28;20217;-65
2024/03/29 06:29:21;;;;;;;3.27;2.37;;;;;;;9.44;63.15;99219.13;5051747;28;20217;-62
2024/03/29 06:31:48;;;;;;;2.00;1.63;;;;;;;9.59;62.89;99228.25;5047797;28;20210;-65
2024/03/29 06:34:14;;;;;;;3.47;1.97;;;;;;;10.03;62.88;99227.28;5043127;28;20680;-64
2024/03/29 06:36:41;;;;;;;4.03;2.03;;;;;;;10.74;59.80;99208.44;5046099;28;20226;-66
2024/03/29 06:41:54;;;;;;;2.13;1.80;;;;;;;12.74;54.60;99213.72;5051445;28;20209;-68
2024/03/29 06:44:21;;;;;;;2.97;2.00;;;;;;;13.58;49.60;99220.28;5044579;28;20210;-65
2024/03/29 06:46:48;;;;;;;2.10;1.80;;;;;;;14.35;49.47;99224.19;5041178;28;20202;-65
2024/03/29 06:49:15;;;;;;;3.37;2.03;;;;;;;15.32;46.38;99226.22;5041176;28;20689;-65
2024/03/29 06:54:27;;;;;;;1.73;1.63;;;;;;;18.13;38.07;99239.19;5048223;28;20264;-64
2024/03/29 06:56:58;;;;;;;2.42;1.70;;;;;;;17.89;37.37;99246.56;5050958;28;20545;-67
2024/03/29 06:59:25;;;;;;;2.15;1.65;;;;;;;17.26;38.42;99243.84;5056836;28;20206;-69
2024/03/29 07:04:56;;;;;;;2.03;1.70;;;;;;;16.49;40.99;99242.44;5041412;28;20320;-67
2024/03/29 07:07:23;;;;;;;2.10;1.65;;;;;;;16.70;40.12;99245.75;5055527;28;20217;-65
2024/03/29 07:09:50;;;;;;;2.60;1.52;;;;;;;16.73;39.91;99249.97;5052513;28;20206;-66
2024/03/29 07:12:18;;;;;;;1.77;1.45;;;;;;;17.48;39.29;99236.59;5051207;28;20752;-64
2024/03/29 07:14:45;;;;;;;1.88;1.58;;;;;;;17.96;36.60;99237.50;5051301;28;20216;-63
2024/03/29 07:17:12;;;;;;;1.98;1.30;;;;;;;17.58;37.07;99229.97;5051686;28;20221;-62
2024/03/29 07:19:40;;;;;;;3.13;1.75;;;;;;;18.19;37.06;99228.44;5036489;28;20238;-62
2024/03/29 07:22:08;;;;;;;3.58;1.70;;;;;;;18.71;35.59;99224.66;5048595;28;20259;-63
2024/03/29 07:24:35;;;;;;;2.50;1.80;;;;;;;19.53;35.07;99239.75;5059925;28;20205;-63
2024/03/29 07:27:02;;;;;;;2.47;1.17;;;;;;;20.80;32.17;99223.78;5052044;28;20198;-64
2024/03/29 07:29:33;;;;;;;2.35;1.70;;;;;;;21.93;28.98;99242.22;5052971;28;20217;-64
2024/03/29 07:32:00;;;;;;;1.88;1.38;;;;;;;21.52;29.85;99231.19;5046174;28;20217;-63
2024/03/29 07:34:27;;;;;;;2.03;1.27;;;;;;;21.52;30.63;99224.16;5038414;28;20214;-63
2024/03/29 07:36:54;;;;;;;2.17;1.35;;;;;;;21.92;29.17;99213.47;5050823;28;20307;-66
2024/03/29 07:39:22;;;;;;;3.38;1.30;;;;;;;22.89;27.67;99217.72;5051109;28;20214;-63
2024/03/29 07:41:49;;;;;;;2.90;1.88;;;;;;;22.46;28.09;99210.44;5042751;28;20206;-64
2024/03/29 07:44:16;;;;;;;2.35;1.42;;;;;;;22.64;28.17;99223.97;5048738;28;20244;-64
2024/03/29 07:46:46;;;;;;;1.85;1.35;;;;;;;22.54;27.74;99221.22;5051124;28;20268;-63
2024/03/29 07:49:13;;;;;;;1.90;1.50;;;;;;;21.90;28.73;99221.44;5053774;28;20213;-64
2024/03/29 07:51:42;;;;;;;2.00;1.30;;;;;;;22.50;27.58;99225.00;5065901;28;20205;-65
2024/03/29 07:54:09;;;;;;;3.05;1.60;;;;;;;23.11;28.14;99227.47;5059989;28;20208;-65
2024/03/29 07:56:36;;;;;;;1.63;1.23;;;;;;;23.47;25.84;99230.84;5059735;28;20276;-66
2024/03/29 07:59:03;;;;;;;1.38;1.27;;;;;;;23.22;26.31;99232.72;5048295;28;20209;-62
2024/03/29 08:01:49;;;;;;;1.92;1.08;;;;;;;23.29;26.66;99236.56;5036168;28;20209;-64
2024/03/29 08:07:02;;;;;;;7.93;1.05;;;;;;;22.53;25.82;99253.66;5051032;28;20221;-64
2024/03/29 08:09:29;;;;;;;1.77;1.08;;;;;;;21.71;27.99;99263.03;5045898;28;20202;-63
2024/03/29 08:11:56;;;;;;;3.60;0.70;;;;;;;21.77;27.09;99259.16;5039590;28;20215;-66
2024/03/29 08:14:25;;;;;;;1.52;1.05;;;;;;;22.56;27.29;99271.81;5049642;28;20202;-66
2024/03/29 08:17:11;;;;;;;3.95;0.95;;;;;;;22.25;26.17;99275.84;5049472;28;20234;-68
2024/03/29 08:19:41;;;;;;;1.15;0.70;;;;;;;22.04;27.37;99264.22;5058110;28;20692;-64
2024/03/29 08:22:10;;;;;;;1.80;0.80;;;;;;;22.05;27.34;99260.63;5056857;28;20646;-65
2024/03/29 08:24:37;;;;;;;2.17;0.75;;;;;;;21.73;26.73;99271.66;5060662;28;20254;-68
2024/03/29 08:27:04;;;;;;;4.18;0.80;;;;;;;21.15;27.59;99263.34;5052168;28;20202;-67
2024/03/29 08:29:31;;;;;;;1.95;0.90;;;;;;;20.73;28.28;99259.22;5050894;28;20608;-66
2024/03/29 08:31:58;;;;;;;1.20;0.60;;;;;;;20.75;28.66;99268.63;5041625;28;20256;-65
2024/03/29 08:34:27;;;;;;;2.50;0.77;;;;;;;20.69;28.00;99255.97;5056248;28;20240;-66
2024/03/29 08:36:56;;;;;;;1.00;0.85;;;;;;;19.84;29.58;99261.41;5055312;28;20721;-68
2024/03/29 08:39:23;;;;;;;1.17;0.82;;;;;;;19.23;30.65;99265.97;5049056;28;20210;-67
2024/03/29 08:41:50;;;;;;;2.47;1.10;;;;;;;18.60;32.13;99269.59;5053543;28;20723;-68
2024/03/29 08:44:17;;;;;;;2.05;1.00;;;;;;;18.20;32.81;99261.41;5051068;28;20641;-65
2024/03/29 08:46:44;;;;;;;1.23;0.77;;;;;;;18.14;32.89;99272.16;5050114;28;20205;-67
2024/03/29 08:49:11;;;;;;;2.08;1.02;;;;;;;18.14;33.67;99272.16;5049593;28;20210;-66
2024/03/29 08:51:38;;;;;;;3.72;0.88;;;;;;;18.17;32.74;99287.63;5067740;28;20240;-67
2024/03/29 08:54:06;;;;;;;0.80;0.80;;;;;;;18.04;32.80;99291.81;5064185;28;20233;-67
2024/03/29 08:56:36;;;;;;;2.20;1.25;;;;;;;17.92;33.51;99293.34;5049722;28;20291;-66
2024/03/29 08:59:07;;;;;;;1.20;0.73;;;;;;;17.85;33.52;99302.41;5049422;28;20201;-66
2024/03/29 09:01:35;;;;;;;2.72;0.80;;;;;;;17.86;33.96;99294.53;5058503;28;20916;-64
2024/03/29 09:04:06;;;;;;;1.83;1.05;;;;;;;17.96;33.63;99294.00;5049705;28;20209;-65
2024/03/29 09:06:33;;;;;;;1.10;0.80;;;;;;;18.05;33.42;99301.34;5044833;28;20581;-65
2024/03/29 09:09:01;;;;;;;4.03;1.15;;;;;;;18.02;33.81;99309.31;5049890;28;20213;-65
2024/03/29 09:11:29;;;;;;;2.15;1.00;;;;;;;17.90;33.66;99305.63;5084636;28;20205;-63
2024/03/29 09:14:00;;;;;;;2.67;0.95;;;;;;;17.73;34.22;99309.06;5053870;28;20267;-64
2024/03/29 09:16:30;;;;;;;2.13;1.58;;;;;;;17.51;34.47;99305.91;5057250;28;20279;-65
2024/03/29 09:18:57;;;;;;;1.20;1.10;;;;;;;17.20;35.13;99314.47;5052267;28;20291;-65
2024/03/29 09:21:24;;;;;;;2.75;1.00;;;;;;;16.91;35.44;99319.34;5057624;28;20560;-65
2024/03/29 09:23:52;;;;;;;3.50;1.42;;;;;;;16.81;35.64;99329.34;5063204;28;20214;-63
2024/03/29 09:26:19;;;;;;;4.95;1.23;;;;;;;16.65;36.33;99323.19;5045407;28;20217;-62
2024/03/29 09:28:49;;;;;;;1.88;1.30;;;;;;;16.63;36.70;99320.66;5049853;28;20692;-65
2024/03/29 09:31:16;;;;;;;1.67;1.20;;;;;;;16.78;37.34;99318.25;5054595;28;20225;-66
2024/03/29 09:33:43;;;;;;;4.10;1.20;;;;;;;16.83;36.75;99327.53;5039096;28;20213;-65
2024/03/29 09:36:11;;;;;;;4.35;1.20;;;;;;;16.59;36.29;99323.47;5053305;28;20221;-67
2024/03/29 09:38:38;;;;;;;3.63;1.00;;;;;;;16.47;35.76;99318.88;5064387;28;20209;-68
2024/03/29 09:41:14;;;;;;;2.33;1.10;;;;;;;16.43;36.47;99302.56;5048798;28;20619;-68
2024/03/29 09:43:44;;;;;;;2.40;1.30;;;;;;;16.56;36.91;99301.03;5055883;28;20228;-68
2024/03/29 09:46:14;;;;;;;1.42;0.90;;;;;;;16.63;36.45;99292.03;5063743;28;20221;-67
2024/03/29 09:48:41;;;;;;;4.85;1.20;;;;;;;16.73;37.30;99310.66;5050723;28;20205;-67
2024/03/29 09:51:09;;;;;;;3.22;1.10;;;;;;;16.99;37.01;99316.38;5044819;28;20599;-67
2024/03/29 09:53:37;;;;;;;1.88;0.75;;;;;;;17.34;36.01;99314.59;5048744;28;20284;-66
2024/03/29 09:56:05;;;;;;;1.30;1.17;;;;;;;17.52;34.75;99289.34;5056650;28;20234;-66
2024/03/29 09:58:33;;;;;;;6.03;1.58;;;;;;;17.43;34.84;99326.31;5053383;28;20214;-64
2024/03/29 10:01:00;;;;;;;1.98;1.10;;;;;;;17.15;34.93;99325.94;5049105;28;20209;-68
2024/03/29 10:03:31;;;;;;;2.60;1.10;;;;;;;17.09;35.56;99338.44;5052455;28;20212;-68
2024/03/29 10:05:59;;;;;;;1.50;0.88;;;;;;;17.02;35.60;99316.22;5045624;28;20209;-64
2024/03/29 10:08:29;;;;;;;2.90;1.10;;;;;;;16.86;36.10;99331.72;5052284;28;20615;-66
2024/03/29 10:10:57;;;;;;;3.13;1.35;;;;;;;16.52;36.71;99335.09;5058675;28;20234;-66
2024/03/29 10:13:24;;;;;;;2.85;1.45;;;;;;;16.42;36.65;99319.94;5048420;28;20221;-66
2024/03/29 10:15:53;;;;;;;1.95;1.00;;;;;;;16.49;36.92;99322.22;5063422;28;20520;-70
2024/03/29 10:18:20;;;;;;;2.75;1.35;;;;;;;16.50;37.18;99323.94;5067746;28;20533;-64
2024/03/29 10:21:02;;;;;;;1.70;1.08;;;;;;;16.65;36.11;99318.81;5072923;28;20920;-65
2024/03/29 10:26:16;;;;;;;1.35;0.98;;;;;;;17.16;34.31;99324.19;5053788;28;20216;-65
2024/03/29 10:29:02;;;;;;;2.10;1.08;;;;;;;16.96;33.72;99327.75;5065358;28;20213;-64
2024/03/29 10:31:35;;;;;;;4.20;1.10;;;;;;;16.78;34.97;99323.47;5057176;28;20267;-67
2024/03/29 10:34:04;;;;;;;2.65;0.90;;;;;;;16.82;35.70;99320.63;5048319;28;20251;-63
2024/03/29 10:36:35;;;;;;;3.17;1.27;;;;;;;17.05;34.77;99329.09;5059343;28;20233;-69
2024/03/29 10:39:10;;;;;;;2.35;1.30;;;;;;;17.13;34.57;99337.34;5050272;28;20658;-65
2024/03/29 10:41:41;;;;;;;1.58;0.98;;;;;;;17.20;33.49;99343.09;5052471;28;20656;-68
2024/03/29 10:44:11;;;;;;;1.02;0.65;;;;;;;17.06;33.33;99339.41;5052755;28;20210;-60
2024/03/29 10:46:39;;;;;;;3.17;0.80;;;;;;;17.07;33.32;99332.44;5060367;28;20669;-67
2024/03/29 10:49:09;;;;;;;1.30;0.93;;;;;;;16.94;34.06;99334.81;5058157;28;20213;-61
2024/03/29 10:51:40;;;;;;;2.22;1.20;;;;;;;16.99;34.85;99329.38;5060348;28;20672;-64
2024/03/29 10:54:08;;;;;;;2.25;1.00;;;;;;;16.95;34.39;99346.06;5067004;28;20573;-65
2024/03/29 10:56:37;;;;;;;2.28;1.08;;;;;;;16.88;34.59;99341.16;5034544;28;20732;-61
2024/03/29 10:59:11;;;;;;;1.90;1.05;;;;;;;16.88;34.70;99338.56;5038456;28;20210;-64
2024/03/29 11:01:43;;;;;;;2.20;1.00;;;;;;;17.10;34.33;99329.69;5051480;28;20205;-61
2024/03/29 11:04:18;;;;;;;3.45;1.13;;;;;;;17.24;33.90;99339.41;5044288;28;20210;-62
2024/03/29 11:06:50;;;;;;;2.05;1.20;;;;;;;17.30;33.95;99347.75;5064306;28;20258;-64
2024/03/29 11:09:22;;;;;;;1.90;0.90;;;;;;;17.32;32.96;99319.03;5051638;28;20214;-63
2024/03/29 11:11:52;;;;;;;2.38;1.02;;;;;;;17.54;33.67;99339.63;5052243;28;20209;-65
2024/03/29 11:17:12;;;;;;;4.55;1.05;;;;;;;17.68;33.29;99342.34;5065448;28;20229;-63
2024/03/29 11:19:40;;;;;;;2.88;1.23;;;;;;;17.59;32.94;99353.25;5055481;28;20684;-61
2024/03/29 11:22:08;;;;;;;1.77;0.93;;;;;;;17.70;32.64;99361.34;5049305;28;20224;-61
2024/03/29 11:24:35;;;;;;;2.10;1.00;;;;;;;17.78;32.80;99353.16;5051974;28;20205;-65
2024/03/29 11:27:10;;;;;;;1.67;1.08;;;;;;;17.76;32.91;99331.56;5047497;28;20210;-64
2024/03/29 11:29:45;;;;;;;1.63;0.93;;;;;;;17.86;33.04;99320.59;5045016;28;20202;-63
2024/03/29 11:35:00;;;;;;;2.35;0.80;;;;;;;18.05;31.36;99312.63;5051800;28;20212;-61
2024/03/29 11:37:32;;;;;;;3.35;1.00;;;;;;;18.10;31.22;99307.16;5047955;28;20673;-65
2024/03/29 11:40:00;;;;;;;1.27;0.73;;;;;;;18.16;31.82;99316.41;5051654;28;20221;-63
2024/03/29 11:42:38;;;;;;;1.90;1.10;;;;;;;18.28;31.88;99310.50;5053090;28;20659;-63
2024/03/29 11:45:07;;;;;;;3.92;0.75;;;;;;;18.32;31.27;99322.47;5060473;28;20664;-61
2024/03/29 11:47:53;;;;;;;0.88;0.75;;;;;;;18.16;32.35;99319.84;5050910;28;20661;-61
2024/03/29 11:50:20;;;;;;;0.98;0.80;;;;;;;18.17;31.21;99329.34;5065382;28;20201;-65
2024/03/29 11:52:49;;;;;;;2.03;0.88;;;;;;;17.97;31.08;99355.63;5043879;28;20657;-63
2024/03/29 11:55:16;;;;;;;0.88;0.80;;;;;;;17.73;31.26;99347.31;5039926;28;20558;-64
2024/03/29 11:57:43;;;;;;;1.33;0.75;;;;;;;17.68;32.00;99347.56;5050822;28;20226;-65
2024/03/29 12:00:11;;;;;;;3.13;1.10;;;;;;;17.86;32.41;99338.00;5050826;28;20221;-64
2024/03/29 12:02:40;;;;;;;2.10;0.95;;;;;;;18.14;31.76;99319.09;5033327;28;20210;-65
2024/03/29 12:05:10;;;;;;;2.58;0.90;;;;;;;18.35;30.58;99317.91;5032023;28;20226;-65
2024/03/29 12:07:37;;;;;;;2.67;0.77;;;;;;;18.33;30.45;99335.41;5048125;28;20256;-67
2024/03/29 12:10:09;;;;;;;1.95;0.85;;;;;;;18.29;30.60;99335.66;5047002;28;20220;-63
2024/03/29 12:12:38;;;;;;;1.80;0.80;;;;;;;18.29;30.84;99338.28;5050307;28;20217;-64
2024/03/29 12:15:06;;;;;;;1.48;0.80;;;;;;;18.40;30.50;99341.13;5042418;28;20638;-66
2024/03/29 12:17:33;;;;;;;0.98;0.77;;;;;;;18.47;30.43;99346.84;5050379;28;20233;-64
2024/03/29 12:20:04;;;;;;;2.58;0.90;;;;;;;18.42;29.48;99334.06;5050916;28;20249;-65
2024/03/29 12:22:32;;;;;;;3.38;1.13;;;;;;;18.33;30.05;99345.84;5050866;28;20213;-65
2024/03/29 12:24:59;;;;;;;3.30;0.98;;;;;;;18.04;31.22;99343.97;5050478;28;20221;-69
2024/03/29 12:27:46;;;;;;;1.33;1.05;;;;;;;17.91;31.82;99363.78;5046749;28;20218;-64
2024/03/29 12:30:14;;;;;;;1.33;0.82;;;;;;;17.78;32.11;99351.38;5050241;28;20206;-66
2024/03/29 12:32:42;;;;;;;3.15;1.00;;;;;;;17.76;31.69;99353.25;5039768;28;20205;-66
2024/03/29 12:35:10;;;;;;;3.38;1.02;;;;;;;17.78;31.65;99347.94;5049457;28;20206;-68
2024/03/29 12:37:37;;;;;;;1.90;0.98;;;;;;;17.84;31.10;99347.63;5048890;28;20677;-66
2024/03/29 12:40:11;;;;;;;1.98;0.90;;;;;;;17.90;30.64;99354.31;5049960;28;20220;-67
2024/03/29 12:42:41;;;;;;;1.90;0.70;;;;;;;18.10;30.67;99351.47;5068682;28;20212;-65
2024/03/29 12:45:10;;;;;;;0.70;0.52;;;;;;;18.24;30.49;99354.19;5053120;28;20214;-65
2024/03/29 12:47:37;;;;;;;1.00;0.80;;;;;;;18.38;31.57;99355.19;5049851;28;20201;-65
2024/03/29 12:50:05;;;;;;;4.45;0.80;;;;;;;18.57;30.76;99354.09;5062807;28;20224;-66
2024/03/29 12:52:38;;;;;;;3.22;0.70;;;;;;;18.63;30.36;99352.06;5050028;28;20221;-68
2024/03/29 12:55:07;;;;;;;2.15;0.90;;;;;;;18.69;29.44;99347.34;5058525;28;20218;-69
2024/03/29 12:57:34;;;;;;;2.85;0.68;;;;;;;18.72;29.14;99357.66;5048736;28;20236;-67
2024/03/29 13:00:08;;;;;;;2.53;0.73;;;;;;;18.63;29.49;99354.66;5053378;28;20206;-66
2024/03/29 13:02:36;;;;;;;5.53;0.82;;;;;;;18.52;29.84;99365.69;5050933;28;20222;-66
2024/03/29 13:05:04;;;;;;;3.05;0.82;;;;;;;18.60;29.90;99358.31;5050684;28;20209;-66
2024/03/29 13:07:31;;;;;;;2.50;0.70;;;;;;;18.54;29.65;99348.19;5051004;28;20197;-61
2024/03/29 13:10:02;;;;;;;2.03;0.57;;;;;;;18.54;29.80;99353.41;5048687;28;20206;-64
2024/03/29 13:12:29;;;;;;;1.65;0.90;;;;;;;18.56;30.13;99349.81;5044055;28;20205;-62
2024/03/29 13:14:56;;;;;;;1.58;0.73;;;;;;;18.68;29.87;99356.09;5046682;28;20213;-65
2024/03/29 13:17:25;;;;;;;4.63;1.00;;;;;;;18.78;29.58;99372.97;5047959;28;20226;-64
2024/03/29 13:19:52;;;;;;;1.95;0.90;;;;;;;18.72;29.09;99362.88;5047850;28;20253;-70
2024/03/29 13:22:19;;;;;;;2.22;0.88;;;;;;;18.43;30.17;99366.22;5053094;28;20205;-65
2024/03/29 13:24:46;;;;;;;1.20;0.70;;;;;;;18.44;30.31;99371.34;5049821;28;20264;-66
2024/03/29 13:27:13;;;;;;;1.70;0.60;;;;;;;18.43;30.10;99359.22;5050255;28;20202;-68
2024/03/29 13:29:40;;;;;;;1.08;0.73;;;;;;;18.18;29.81;99364.09;5038748;28;20212;-71
2024/03/29 13:32:08;;;;;;;2.88;0.63;;;;;;;18.19;30.18;99368.38;5048132;28;20579;-67
2024/03/29 13:34:36;;;;;;;2.55;0.90;;;;;;;18.21;29.42;99361.31;5054814;28;20213;-65
2024/03/29 13:37:04;;;;;;;1.00;0.60;;;;;;;18.16;29.69;99353.75;5051109;28;20259;-66
2024/03/29 13:39:31;;;;;;;1.65;0.57;;;;;;;18.25;28.83;99363.66;5071740;28;20223;-66
2024/03/29 13:44:42;;;;;;;0.80;0.50;;;;;;;18.47;29.03;99378.16;5049140;28;20206;-64
2024/03/29 13:47:15;;;;;;;1.10;0.60;;;;;;;18.51;28.57;99380.50;5047259;28;20210;-66
2024/03/29 13:49:47;;;;;;;0.50;0.40;;;;;;;18.52;28.89;99387.44;5046983;28;20213;-66
2024/03/29 13:52:16;;;;;;;1.10;0.60;;;;;;;18.62;28.97;99376.47;5051585;28;20206;-66
2024/03/29 13:54:47;;;;;;;1.58;0.55;;;;;;;18.52;28.88;99370.91;5054928;28;20648;-64
2024/03/29 13:57:14;;;;;;;2.10;0.60;;;;;;;18.34;28.73;99381.44;5059872;28;20711;-67
2024/03/29 13:59:43;;;;;;;1.13;0.77;;;;;;;18.24;28.64;99368.97;5058948;28;20201;-63
2024/03/29 14:02:12;;;;;;;1.50;0.88;;;;;;;18.20;28.46;99355.28;5052667;28;20218;-64
2024/03/29 14:04:38;;;;;;;3.25;0.65;;;;;;;18.28;28.61;99355.69;5051475;28;20205;-63
2024/03/29 14:07:09;;;;;;;0.88;0.60;;;;;;;18.33;28.17;99360.66;5060325;28;20210;-61
2024/03/29 14:09:36;;;;;;;1.73;0.63;;;;;;;18.24;28.45;99362.00;5056535;28;20202;-65